BXTK1: Spring River at Baxter Springs

Data processed at Fri May 24 2019 23:50


All information presented herein is the property of the government of the United States of America and may be revised or deleted at any time without prior notice.
Dissemination of this information without the expressed written consent of the Public Affairs Office, Tulsa District U.S. Army Corps of Engineers is strictly prohibited.
These data are gathered electronically and, as presented, have not undergone any form of quality control. These data are not guaranteed to be valid or correct.
Go to home page.
Go to station list.
Go to home page.

Upstream stations:

Downstream station:
Previous Day
Next Day
Current Day
    
SHEF ID:       BXTK1     SPRING R NR BAXTER SPRINGS, KS
STATION TYPE:  

               PRECIP     STAGE  RIV-FLOW  BAT-LOAD
                   in        ft       cfs      volt
              Ccp-Rev   Ccp-Rev   Ccp-Rev   Ccp-Rev
(US/Central)
05/24 00:00      0.00     25.67     88134     12.77
05/24 01:00      0.00     25.37     86340     12.71
05/24 02:00      0.00     25.26     85686     12.65
05/24 03:00      0.00     25.21     85389     12.65
05/24 04:00      0.00     24.95     83854     12.65
05/24 05:00      0.00     24.78     82857     12.65
05/24 06:00      0.00     24.74     82623     12.65
05/24 07:00      0.00     24.60     81806     12.65
05/24 08:00      0.00     24.49     81167     13.18
05/24 09:00      0.00     24.32     80183     13.36
05/24 10:00      0.00     24.21     79549     13.83
05/24 11:00      0.00     24.12     79032     14.00
05/24 12:00      0.00     24.11     78975     14.12
05/24 13:00      0.00     23.87     77603     14.12
05/24 14:00      0.00     23.95     78059     14.06
05/24 15:00      0.00     23.80     77205     14.06
05/24 16:00      0.00     23.78     77092     13.94
05/24 17:00      0.00     23.83     77376     13.83
05/24 18:00      0.00     23.68     76525     13.18
05/24 19:00      0.00     23.74     76865     12.89
05/24 20:00      0.00     23.59     76016     12.89
05/24 21:00      0.00     23.47     75340     12.83
05/24 22:00      0.00     23.48     75396     12.77
05/24 23:00      0.00     23.38     74835     12.77